sensor_id;sensor_type;location;lat;lon;timestamp;pressure;altitude;pressure_sealevel;temperature;humidity
60974;BME280;46846;51.528;5.076;2024-01-30T00:01:54;102071.47;;;4.09;97.05
60974;BME280;46846;51.528;5.076;2024-01-30T00:04:19;102072.41;;;4.15;97.81
60974;BME280;46846;51.528;5.076;2024-01-30T00:06:45;102069.75;;;4.13;98.14
60974;BME280;46846;51.528;5.076;2024-01-30T00:09:10;102065.34;;;4.10;97.12
60974;BME280;46846;51.528;5.076;2024-01-30T00:11:37;102061.91;;;4.18;98.38
60974;BME280;46846;51.528;5.076;2024-01-30T00:14:03;102062.78;;;4.18;98.19
60974;BME280;46846;51.528;5.076;2024-01-30T00:16:28;102057.41;;;4.09;96.07
60974;BME280;46846;51.528;5.076;2024-01-30T00:18:54;102059.19;;;4.12;97.27
60974;BME280;46846;51.528;5.076;2024-01-30T00:21:20;102055.75;;;4.16;98.00
60974;BME280;46846;51.528;5.076;2024-01-30T00:23:46;102051.25;;;4.10;96.91
60974;BME280;46846;51.528;5.076;2024-01-30T00:26:12;102053.97;;;4.16;97.04
60974;BME280;46846;51.528;5.076;2024-01-30T00:28:38;102050.47;;;4.16;97.01
60974;BME280;46846;51.528;5.076;2024-01-30T00:31:03;102046.94;;;4.12;97.47
60974;BME280;46846;51.528;5.076;2024-01-30T00:33:29;102046.97;;;4.17;97.90
60974;BME280;46846;51.528;5.076;2024-01-30T00:35:55;102043.41;;;4.15;96.72
60974;BME280;46846;51.528;5.076;2024-01-30T00:38:20;102035.53;;;4.16;97.16
60974;BME280;46846;51.528;5.076;2024-01-30T00:40:45;102027.59;;;4.15;97.26
60974;BME280;46846;51.528;5.076;2024-01-30T00:43:11;102031.09;;;4.10;97.03
60974;BME280;46846;51.528;5.076;2024-01-30T00:45:36;102039.88;;;4.13;96.67
60974;BME280;46846;51.528;5.076;2024-01-30T00:48:02;102042.50;;;4.09;96.87
60974;BME280;46846;51.528;5.076;2024-01-30T00:50:27;102040.66;;;4.04;96.13
60974;BME280;46846;51.528;5.076;2024-01-30T00:52:52;102042.44;;;4.05;96.42
60974;BME280;46846;51.528;5.076;2024-01-30T00:55:18;102044.28;;;4.14;96.89
60974;BME280;46846;51.528;5.076;2024-01-30T00:57:43;102039.91;;;4.14;97.37
60974;BME280;46846;51.528;5.076;2024-01-30T01:00:09;102039.91;;;4.14;97.29
60974;BME280;46846;51.528;5.076;2024-01-30T01:02:35;102028.44;;;4.09;96.79
60974;BME280;46846;51.528;5.076;2024-01-30T01:05:01;102031.91;;;4.06;96.59
60974;BME280;46846;51.528;5.076;2024-01-30T01:07:26;102029.31;;;4.09;96.66
60974;BME280;46846;51.528;5.076;2024-01-30T01:09:51;102039.72;;;3.99;95.40
60974;BME280;46846;51.528;5.076;2024-01-30T01:12:17;102028.44;;;4.09;96.42
60974;BME280;46846;51.528;5.076;2024-01-30T01:14:42;102038.09;;;4.10;96.67
60974;BME280;46846;51.528;5.076;2024-01-30T01:17:08;102039.00;;;4.10;96.44
60974;BME280;46846;51.528;5.076;2024-01-30T01:19:33;102032.88;;;4.13;96.74
60974;BME280;46846;51.528;5.076;2024-01-30T01:21:58;102030.19;;;4.10;96.14
60974;BME280;46846;51.528;5.076;2024-01-30T01:24:24;102035.47;;;4.10;96.27
60974;BME280;46846;51.528;5.076;2024-01-30T01:26:49;102023.13;;;4.07;95.31
60974;BME280;46846;51.528;5.076;2024-01-30T01:29:15;102028.50;;;4.15;96.94
60974;BME280;46846;51.528;5.076;2024-01-30T01:31:41;102017.94;;;4.12;95.98
60974;BME280;46846;51.528;5.076;2024-01-30T01:34:10;102014.47;;;4.16;96.66
60974;BME280;46846;51.528;5.076;2024-01-30T01:36:36;102016.22;;;4.14;96.85
60974;BME280;46846;51.528;5.076;2024-01-30T01:39:01;102008.31;;;4.14;96.81
60974;BME280;46846;51.528;5.076;2024-01-30T01:41:31;102008.31;;;4.14;97.08
60974;BME280;46846;51.528;5.076;2024-01-30T01:43:57;102008.34;;;4.19;97.30
60974;BME280;46846;51.528;5.076;2024-01-30T01:46:23;102002.09;;;4.09;95.46
60974;BME280;46846;51.528;5.076;2024-01-30T01:48:49;102002.13;;;4.14;96.18
60974;BME280;46846;51.528;5.076;2024-01-30T01:51:14;101994.97;;;4.02;94.93
60974;BME280;46846;51.528;5.076;2024-01-30T01:53:40;101999.34;;;4.00;94.64
60974;BME280;46846;51.528;5.076;2024-01-30T01:56:06;102004.66;;;4.04;95.73
60974;BME280;46846;51.528;5.076;2024-01-30T01:58:32;102005.56;;;4.05;95.93
60974;BME280;46846;51.528;5.076;2024-01-30T02:00:58;102007.31;;;4.04;95.33
60974;BME280;46846;51.528;5.076;2024-01-30T02:03:24;102004.66;;;4.03;95.33
60974;BME280;46846;51.528;5.076;2024-01-30T02:05:53;102005.63;;;4.11;96.46
60974;BME280;46846;51.528;5.076;2024-01-30T02:08:19;102002.19;;;4.17;96.72
60974;BME280;46846;51.528;5.076;2024-01-30T02:10:45;102007.47;;;4.17;95.56
60974;BME280;46846;51.528;5.076;2024-01-30T02:13:10;102010.06;;;4.15;96.63
60974;BME280;46846;51.528;5.076;2024-01-30T02:15:36;102002.19;;;4.18;96.45
60974;BME280;46846;51.528;5.076;2024-01-30T02:18:01;102005.63;;;4.11;95.47
60974;BME280;46846;51.528;5.076;2024-01-30T02:20:30;102003.91;;;4.15;96.29
60974;BME280;46846;51.528;5.076;2024-01-30T02:22:58;102007.41;;;4.14;96.20
60974;BME280;46846;51.528;5.076;2024-01-30T02:25:40;102003.88;;;4.12;95.71
60974;BME280;46846;51.528;5.076;2024-01-30T02:28:12;102002.13;;;4.10;95.30
60974;BME280;46846;51.528;5.076;2024-01-30T02:30:47;101999.53;;;4.15;95.80
60974;BME280;46846;51.528;5.076;2024-01-30T02:33:13;101996.88;;;4.14;95.65
60974;BME280;46846;51.528;5.076;2024-01-30T02:35:38;101987.19;;;4.11;96.11
60974;BME280;46846;51.528;5.076;2024-01-30T02:38:04;101989.88;;;4.17;96.00
60974;BME280;46846;51.528;5.076;2024-01-30T02:40:30;101986.38;;;4.18;96.22
60974;BME280;46846;51.528;5.076;2024-01-30T02:42:56;101984.56;;;4.13;95.90
60974;BME280;46846;51.528;5.076;2024-01-30T02:45:21;101989.00;;;4.18;96.54
60974;BME280;46846;51.528;5.076;2024-01-30T02:47:47;101982.88;;;4.18;96.46
60974;BME280;46846;51.528;5.076;2024-01-30T02:50:12;101977.59;;;4.18;96.45
60974;BME280;46846;51.528;5.076;2024-01-30T02:52:38;101981.94;;;4.13;95.93
60974;BME280;46846;51.528;5.076;2024-01-30T02:55:03;101967.91;;;4.12;96.80
60974;BME280;46846;51.528;5.076;2024-01-30T02:57:29;101970.56;;;4.17;96.32
60974;BME280;46846;51.528;5.076;2024-01-30T02:59:54;101964.38;;;4.13;95.67
60974;BME280;46846;51.528;5.076;2024-01-30T03:02:20;101975.81;;;4.12;95.75
60974;BME280;46846;51.528;5.076;2024-01-30T03:04:45;101977.50;;;4.10;96.28
60974;BME280;46846;51.528;5.076;2024-01-30T03:07:11;101967.06;;;4.18;96.59
60974;BME280;46846;51.528;5.076;2024-01-30T03:09:37;101970.59;;;4.20;96.49
60974;BME280;46846;51.528;5.076;2024-01-30T03:12:02;101971.41;;;4.14;95.87
60974;BME280;46846;51.528;5.076;2024-01-30T03:14:29;101962.63;;;4.12;96.02
60974;BME280;46846;51.528;5.076;2024-01-30T03:16:55;101973.97;;;4.06;95.46
60974;BME280;46846;51.528;5.076;2024-01-30T03:19:20;101973.06;;;4.04;95.00
60974;BME280;46846;51.528;5.076;2024-01-30T03:21:45;101966.88;;;3.97;94.64
60974;BME280;46846;51.528;5.076;2024-01-30T03:24:11;101973.84;;;3.94;94.36
60974;BME280;46846;51.528;5.076;2024-01-30T03:26:36;101973.03;;;4.03;95.12
60974;BME280;46846;51.528;5.076;2024-01-30T03:29:01;101975.66;;;4.00;95.11
60974;BME280;46846;51.528;5.076;2024-01-30T03:31:27;101974.69;;;3.93;94.48
60974;BME280;46846;51.528;5.076;2024-01-30T03:33:52;101970.38;;;4.00;95.13
60974;BME280;46846;51.528;5.076;2024-01-30T03:36:17;101978.31;;;4.03;95.35
60974;BME280;46846;51.528;5.076;2024-01-30T03:38:43;101972.16;;;4.04;95.39
60974;BME280;46846;51.528;5.076;2024-01-30T03:41:08;101973.06;;;4.04;94.86
60974;BME280;46846;51.528;5.076;2024-01-30T03:43:35;101979.22;;;4.03;94.57
60974;BME280;46846;51.528;5.076;2024-01-30T03:46:01;101984.53;;;4.11;95.50
60974;BME280;46846;51.528;5.076;2024-01-30T03:48:27;101973.16;;;4.12;95.16
60974;BME280;46846;51.528;5.076;2024-01-30T03:50:52;101970.56;;;4.15;95.34
60974;BME280;46846;51.528;5.076;2024-01-30T03:53:18;101971.44;;;4.17;95.42
60974;BME280;46846;51.528;5.076;2024-01-30T03:55:43;101972.31;;;4.16;95.08
60974;BME280;46846;51.528;5.076;2024-01-30T03:58:09;101962.75;;;4.23;95.64
60974;BME280;46846;51.528;5.076;2024-01-30T04:00:34;101968.00;;;4.21;95.42
60974;BME280;46846;51.528;5.076;2024-01-30T04:03:00;101973.97;;;4.06;93.58
60974;BME280;46846;51.528;5.076;2024-01-30T04:05:25;101964.41;;;4.16;95.63
60974;BME280;46846;51.528;5.076;2024-01-30T04:07:51;101957.44;;;4.20;95.04
60974;BME280;46846;51.528;5.076;2024-01-30T04:10:16;101955.69;;;4.20;95.99
60974;BME280;46846;51.528;5.076;2024-01-30T04:12:41;101949.56;;;4.23;95.86
60974;BME280;46846;51.528;5.076;2024-01-30T04:15:08;101942.50;;;4.22;95.44
60974;BME280;46846;51.528;5.076;2024-01-30T04:17:33;101945.03;;;4.11;94.58
60974;BME280;46846;51.528;5.076;2024-01-30T04:19:59;101952.00;;;4.07;93.66
60974;BME280;46846;51.528;5.076;2024-01-30T04:22:24;101942.47;;;4.17;95.01
60974;BME280;46846;51.528;5.076;2024-01-30T04:24:49;101933.69;;;4.18;95.44
60974;BME280;46846;51.528;5.076;2024-01-30T04:27:15;101945.09;;;4.16;94.88
60974;BME280;46846;51.528;5.076;2024-01-30T04:29:40;101940.72;;;4.18;95.25
60974;BME280;46846;51.528;5.076;2024-01-30T04:32:06;101949.47;;;4.15;95.14
60974;BME280;46846;51.528;5.076;2024-01-30T04:34:31;101951.28;;;4.21;95.55
60974;BME280;46846;51.528;5.076;2024-01-30T04:36:56;101942.53;;;4.23;95.65
60974;BME280;46846;51.528;5.076;2024-01-30T04:39:22;101952.22;;;4.29;95.55
60974;BME280;46846;51.528;5.076;2024-01-30T04:41:47;101944.34;;;4.29;96.25
60974;BME280;46846;51.528;5.076;2024-01-30T04:44:13;101938.19;;;4.29;96.03
60974;BME280;46846;51.528;5.076;2024-01-30T04:46:38;101944.38;;;4.32;96.16
60974;BME280;46846;51.528;5.076;2024-01-30T04:49:04;101944.34;;;4.31;96.28
60974;BME280;46846;51.528;5.076;2024-01-30T04:51:29;101946.97;;;4.29;96.15
60974;BME280;46846;51.528;5.076;2024-01-30T04:53:55;101942.56;;;4.28;95.53
60974;BME280;46846;51.528;5.076;2024-01-30T04:56:20;101938.25;;;4.33;96.65
60974;BME280;46846;51.528;5.076;2024-01-30T04:58:46;101932.94;;;4.29;95.75
60974;BME280;46846;51.528;5.076;2024-01-30T05:01:18;101929.44;;;4.31;96.75
60974;BME280;46846;51.528;5.076;2024-01-30T05:03:43;101934.69;;;4.33;96.16
60974;BME280;46846;51.528;5.076;2024-01-30T05:06:09;101939.91;;;4.23;94.98
60974;BME280;46846;51.528;5.076;2024-01-30T05:08:34;101941.63;;;4.20;95.02
60974;BME280;46846;51.528;5.076;2024-01-30T05:11:04;101938.13;;;4.19;95.30
60974;BME280;46846;51.528;5.076;2024-01-30T05:13:30;101930.25;;;4.24;95.55
60974;BME280;46846;51.528;5.076;2024-01-30T05:15:56;101936.34;;;4.20;95.10
60974;BME280;46846;51.528;5.076;2024-01-30T05:18:21;101940.78;;;4.24;95.13
60974;BME280;46846;51.528;5.076;2024-01-30T05:20:46;101931.09;;;4.21;94.60
60974;BME280;46846;51.528;5.076;2024-01-30T05:23:12;101943.31;;;4.13;94.21
60974;BME280;46846;51.528;5.076;2024-01-30T05:25:37;101929.38;;;4.25;95.35
60974;BME280;46846;51.528;5.076;2024-01-30T05:28:03;101925.88;;;4.26;94.77
60974;BME280;46846;51.528;5.076;2024-01-30T05:30:28;101922.25;;;4.16;93.63
60974;BME280;46846;51.528;5.076;2024-01-30T05:32:54;101920.50;;;4.18;94.20
60974;BME280;46846;51.528;5.076;2024-01-30T05:35:19;101918.81;;;4.20;94.91
60974;BME280;46846;51.528;5.076;2024-01-30T05:37:50;101920.59;;;4.26;95.20
60974;BME280;46846;51.528;5.076;2024-01-30T05:40:16;101929.34;;;4.23;94.17
60974;BME280;46846;51.528;5.076;2024-01-30T05:42:42;101935.53;;;4.24;94.73
60974;BME280;46846;51.528;5.076;2024-01-30T05:45:08;101928.44;;;4.17;93.78
60974;BME280;46846;51.528;5.076;2024-01-30T05:47:34;101928.44;;;4.20;94.13
60974;BME280;46846;51.528;5.076;2024-01-30T05:49:59;101924.06;;;4.20;94.05
60974;BME280;46846;51.528;5.076;2024-01-30T05:52:25;101925.84;;;4.21;94.68
60974;BME280;46846;51.528;5.076;2024-01-30T05:54:50;101934.63;;;4.23;94.31
60974;BME280;46846;51.528;5.076;2024-01-30T05:57:16;101941.59;;;4.18;94.46
60974;BME280;46846;51.528;5.076;2024-01-30T05:59:41;101945.19;;;4.27;94.46
60974;BME280;46846;51.528;5.076;2024-01-30T06:02:07;101942.56;;;4.28;94.48
60974;BME280;46846;51.528;5.076;2024-01-30T06:04:32;101938.25;;;4.33;95.32
60974;BME280;46846;51.528;5.076;2024-01-30T06:06:57;101933.78;;;4.29;94.94
60974;BME280;46846;51.528;5.076;2024-01-30T06:09:23;101932.09;;;4.34;94.90
60974;BME280;46846;51.528;5.076;2024-01-30T06:11:48;101939.09;;;4.31;94.38
60974;BME280;46846;51.528;5.076;2024-01-30T06:14:13;101945.28;;;4.34;94.33
60974;BME280;46846;51.528;5.076;2024-01-30T06:16:39;101942.66;;;4.36;95.04
60974;BME280;46846;51.528;5.076;2024-01-30T06:19:04;101945.31;;;4.39;95.30
60974;BME280;46846;51.528;5.076;2024-01-30T06:21:31;101945.28;;;4.34;94.81
60974;BME280;46846;51.528;5.076;2024-01-30T06:23:57;101952.31;;;4.37;95.06
60974;BME280;46846;51.528;5.076;2024-01-30T06:26:22;101946.16;;;4.36;94.24
60974;BME280;46846;51.528;5.076;2024-01-30T06:28:48;101945.34;;;4.44;95.57
60974;BME280;46846;51.528;5.076;2024-01-30T06:31:13;101939.22;;;4.46;95.08
60974;BME280;46846;51.528;5.076;2024-01-30T06:33:39;101952.47;;;4.56;96.13
60974;BME280;46846;51.528;5.076;2024-01-30T06:36:04;101954.19;;;4.52;95.16
60974;BME280;46846;51.528;5.076;2024-01-30T06:38:29;101947.22;;;4.57;96.17
60974;BME280;46846;51.528;5.076;2024-01-30T06:40:55;101959.41;;;4.44;94.67
60974;BME280;46846;51.528;5.076;2024-01-30T06:43:22;101967.25;;;4.38;94.35
60974;BME280;46846;51.528;5.076;2024-01-30T06:45:47;101962.94;;;4.43;94.98
60974;BME280;46846;51.528;5.076;2024-01-30T06:48:12;101977.88;;;4.44;95.11
60974;BME280;46846;51.528;5.076;2024-01-30T06:50:38;101993.63;;;4.41;94.59
60974;BME280;46846;51.528;5.076;2024-01-30T06:53:03;101993.69;;;4.47;95.56
60974;BME280;46846;51.528;5.076;2024-01-30T06:55:29;101984.06;;;4.51;94.95
60974;BME280;46846;51.528;5.076;2024-01-30T06:57:54;101995.47;;;4.50;95.09
60974;BME280;46846;51.528;5.076;2024-01-30T07:00:19;101989.44;;;4.59;95.80
60974;BME280;46846;51.528;5.076;2024-01-30T07:02:45;101996.47;;;4.63;95.73
60974;BME280;46846;51.528;5.076;2024-01-30T07:05:10;101992.94;;;4.61;95.78
60974;BME280;46846;51.528;5.076;2024-01-30T07:07:36;101991.19;;;4.60;95.52
60974;BME280;46846;51.528;5.076;2024-01-30T07:10:01;101998.28;;;4.67;95.49
60974;BME280;46846;51.528;5.076;2024-01-30T07:12:27;101993.06;;;4.73;96.87
60974;BME280;46846;51.528;5.076;2024-01-30T07:14:52;101997.47;;;4.77;97.13
60974;BME280;46846;51.528;5.076;2024-01-30T07:17:18;102003.63;;;4.73;97.38
60974;BME280;46846;51.528;5.076;2024-01-30T07:19:43;102008.94;;;4.81;97.50
60974;BME280;46846;51.528;5.076;2024-01-30T07:22:09;102007.19;;;4.82;96.84
60974;BME280;46846;51.528;5.076;2024-01-30T07:24:34;102006.31;;;4.83;97.54
60974;BME280;46846;51.528;5.076;2024-01-30T07:27:00;102015.13;;;4.85;97.85
60974;BME280;46846;51.528;5.076;2024-01-30T07:29:25;102017.75;;;4.82;97.67
60974;BME280;46846;51.528;5.076;2024-01-30T07:31:50;102022.13;;;4.78;96.60
60974;BME280;46846;51.528;5.076;2024-01-30T07:34:16;102022.97;;;4.75;97.09
60974;BME280;46846;51.528;5.076;2024-01-30T07:36:41;102025.66;;;4.82;97.45
60974;BME280;46846;51.528;5.076;2024-01-30T07:39:07;102026.53;;;4.84;97.75
60974;BME280;46846;51.528;5.076;2024-01-30T07:41:32;102023.03;;;4.83;98.15
60974;BME280;46846;51.528;5.076;2024-01-30T07:43:58;102030.94;;;4.85;98.10
60974;BME280;46846;51.528;5.076;2024-01-30T07:46:23;102027.44;;;4.84;97.60
60974;BME280;46846;51.528;5.076;2024-01-30T07:48:48;102027.41;;;4.79;96.37
60974;BME280;46846;51.528;5.076;2024-01-30T07:51:14;102034.34;;;4.73;96.67
60974;BME280;46846;51.528;5.076;2024-01-30T07:53:42;102027.38;;;4.76;96.84
60974;BME280;46846;51.528;5.076;2024-01-30T07:56:07;102036.06;;;4.68;95.79
60974;BME280;46846;51.528;5.076;2024-01-30T07:58:33;102033.38;;;4.63;95.38
60974;BME280;46846;51.528;5.076;2024-01-30T08:00:58;102046.53;;;4.58;95.49
60974;BME280;46846;51.528;5.076;2024-01-30T08:03:25;102045.69;;;4.61;94.92
60974;BME280;46846;51.528;5.076;2024-01-30T08:05:51;102045.59;;;4.55;94.89
60974;BME280;46846;51.528;5.076;2024-01-30T08:08:16;102049.09;;;4.52;95.19
60974;BME280;46846;51.528;5.076;2024-01-30T08:10:41;102055.22;;;4.51;95.04
60974;BME280;46846;51.528;5.076;2024-01-30T08:13:07;102054.31;;;4.44;95.71
60974;BME280;46846;51.528;5.076;2024-01-30T08:15:34;102051.69;;;4.46;95.77
60974;BME280;46846;51.528;5.076;2024-01-30T08:17:59;102046.44;;;4.49;95.25
60974;BME280;46846;51.528;5.076;2024-01-30T08:20:25;102053.53;;;4.53;95.77
60974;BME280;46846;51.528;5.076;2024-01-30T08:22:51;102054.38;;;4.54;95.64
60974;BME280;46846;51.528;5.076;2024-01-30T08:25:16;102042.09;;;4.53;95.41
60974;BME280;46846;51.528;5.076;2024-01-30T08:27:41;102035.88;;;4.46;95.13
60974;BME280;46846;51.528;5.076;2024-01-30T08:30:07;102048.19;;;4.48;95.64
60974;BME280;46846;51.528;5.076;2024-01-30T08:32:33;102047.25;;;4.45;95.57
60974;BME280;46846;51.528;5.076;2024-01-30T08:34:59;102039.38;;;4.46;95.92
60974;BME280;46846;51.528;5.076;2024-01-30T08:37:24;102030.56;;;4.43;95.58
60974;BME280;46846;51.528;5.076;2024-01-30T08:39:50;102042.84;;;4.41;95.94
60974;BME280;46846;51.528;5.076;2024-01-30T08:42:15;102037.63;;;4.45;96.11
60974;BME280;46846;51.528;5.076;2024-01-30T08:44:43;102041.22;;;4.54;96.17
60974;BME280;46846;51.528;5.076;2024-01-30T08:47:08;102044.78;;;4.59;96.06
60974;BME280;46846;51.528;5.076;2024-01-30T08:49:34;102048.41;;;4.69;95.90
60974;BME280;46846;51.528;5.076;2024-01-30T08:51:59;102055.41;;;4.65;95.93
60974;BME280;46846;51.528;5.076;2024-01-30T08:54:24;102050.06;;;4.59;95.49
60974;BME280;46846;51.528;5.076;2024-01-30T08:56:50;102053.56;;;4.59;95.42
60974;BME280;46846;51.528;5.076;2024-01-30T08:59:17;102048.31;;;4.61;95.77
60974;BME280;46846;51.528;5.076;2024-01-30T09:01:42;102058.88;;;4.64;95.96
60974;BME280;46846;51.528;5.076;2024-01-30T09:04:08;102069.44;;;4.65;96.20
60974;BME280;46846;51.528;5.076;2024-01-30T09:06:33;102065.91;;;4.60;95.56
60974;BME280;46846;51.528;5.076;2024-01-30T09:08:58;102072.06;;;4.62;95.93
60974;BME280;46846;51.528;5.076;2024-01-30T09:11:24;102076.44;;;4.62;96.45
60974;BME280;46846;51.528;5.076;2024-01-30T09:13:49;102071.16;;;4.62;95.70
60974;BME280;46846;51.528;5.076;2024-01-30T09:16:15;102069.41;;;4.64;95.83
60974;BME280;46846;51.528;5.076;2024-01-30T09:18:41;102071.22;;;4.67;96.24
60974;BME280;46846;51.528;5.076;2024-01-30T09:21:07;102076.44;;;4.62;96.35
60974;BME280;46846;51.528;5.076;2024-01-30T09:23:32;102078.28;;;4.69;96.38
60974;BME280;46846;51.528;5.076;2024-01-30T09:25:58;102081.88;;;4.76;95.60
60974;BME280;46846;51.528;5.076;2024-01-30T09:28:24;102084.50;;;4.74;96.41
60974;BME280;46846;51.528;5.076;2024-01-30T09:30:49;102081.88;;;4.79;95.82
60974;BME280;46846;51.528;5.076;2024-01-30T09:33:15;102091.66;;;4.91;96.22
60974;BME280;46846;51.528;5.076;2024-01-30T09:35:40;102085.56;;;4.95;96.63
60974;BME280;46846;51.528;5.076;2024-01-30T09:38:05;102083.78;;;4.92;95.76
60974;BME280;46846;51.528;5.076;2024-01-30T09:40:31;102080.22;;;4.87;95.72
60974;BME280;46846;51.528;5.076;2024-01-30T09:42:56;102081.94;;;4.84;95.69
60974;BME280;46846;51.528;5.076;2024-01-30T09:45:25;102087.25;;;4.88;96.41
60974;BME280;46846;51.528;5.076;2024-01-30T09:47:52;102084.66;;;4.93;96.64
60974;BME280;46846;51.528;5.076;2024-01-30T09:50:18;102096.09;;;4.90;96.23
60974;BME280;46846;51.528;5.076;2024-01-30T09:52:44;102100.41;;;4.84;96.47
60974;BME280;46846;51.528;5.076;2024-01-30T09:55:10;102096.09;;;4.90;96.76
60974;BME280;46846;51.528;5.076;2024-01-30T09:57:35;102091.66;;;4.88;96.41
60974;BME280;46846;51.528;5.076;2024-01-30T10:00:02;102095.06;;;4.77;96.59
60974;BME280;46846;51.528;5.076;2024-01-30T10:02:27;102092.31;;;4.68;97.11
60974;BME280;46846;51.528;5.076;2024-01-30T10:04:53;102092.31;;;4.68;97.49
60974;BME280;46846;51.528;5.076;2024-01-30T10:07:18;102108.22;;;4.74;98.14
60974;BME280;46846;51.528;5.076;2024-01-30T10:09:45;102103.84;;;4.76;97.62
60974;BME280;46846;51.528;5.076;2024-01-30T10:12:11;102101.28;;;4.83;97.34
60974;BME280;46846;51.528;5.076;2024-01-30T10:14:40;102096.97;;;4.96;97.34
60974;BME280;46846;51.528;5.076;2024-01-30T10:17:08;102091.81;;;5.06;97.20
60974;BME280;46846;51.528;5.076;2024-01-30T10:19:34;102116.31;;;4.95;96.96
60974;BME280;46846;51.528;5.076;2024-01-30T10:22:00;102122.63;;;5.09;97.07
60974;BME280;46846;51.528;5.076;2024-01-30T10:24:26;102112.03;;;5.06;97.01
60974;BME280;46846;51.528;5.076;2024-01-30T10:26:52;102107.47;;;4.89;97.24
60974;BME280;46846;51.528;5.076;2024-01-30T10:29:18;102111.91;;;4.93;97.96
60974;BME280;46846;51.528;5.076;2024-01-30T10:31:43;102112.84;;;5.00;97.65
60974;BME280;46846;51.528;5.076;2024-01-30T10:34:08;102120.69;;;4.91;97.83
60974;BME280;46846;51.528;5.076;2024-01-30T10:36:39;102119.84;;;4.95;98.08
60974;BME280;46846;51.528;5.076;2024-01-30T10:39:06;102115.50;;;5.02;97.56
60974;BME280;46846;51.528;5.076;2024-01-30T10:41:39;102112.84;;;4.97;98.14
60974;BME280;46846;51.528;5.076;2024-01-30T10:44:09;102118.97;;;4.96;97.93
60974;BME280;46846;51.528;5.076;2024-01-30T10:46:35;102112.81;;;4.94;98.37
60974;BME280;46846;51.528;5.076;2024-01-30T10:49:02;102114.59;;;4.98;98.14
60974;BME280;46846;51.528;5.076;2024-01-30T10:51:28;102123.41;;;5.00;98.41
60974;BME280;46846;51.528;5.076;2024-01-30T10:53:54;102127.88;;;5.06;98.17
60974;BME280;46846;51.528;5.076;2024-01-30T10:56:24;102129.66;;;5.10;97.67
60974;BME280;46846;51.528;5.076;2024-01-30T10:58:53;102124.41;;;5.12;98.17
60974;BME280;46846;51.528;5.076;2024-01-30T11:01:19;102130.53;;;5.12;97.90
60974;BME280;46846;51.528;5.076;2024-01-30T11:03:51;102140.28;;;5.19;97.96
60974;BME280;46846;51.528;5.076;2024-01-30T11:06:16;102123.59;;;5.19;98.19
60974;BME280;46846;51.528;5.076;2024-01-30T11:08:44;102127.94;;;5.14;98.07
60974;BME280;46846;51.528;5.076;2024-01-30T11:11:10;102120.06;;;5.17;98.54
60974;BME280;46846;51.528;5.076;2024-01-30T11:13:36;102107.81;;;5.25;98.27
60974;BME280;46846;51.528;5.076;2024-01-30T11:16:02;102122.88;;;5.40;98.04
60974;BME280;46846;51.528;5.076;2024-01-30T11:18:32;102122.81;;;5.34;97.35
60974;BME280;46846;51.528;5.076;2024-01-30T11:20:59;102113.09;;;5.25;97.76
60974;BME280;46846;51.528;5.076;2024-01-30T11:23:27;102114.88;;;5.29;98.09
60974;BME280;46846;51.528;5.076;2024-01-30T11:25:53;102113.13;;;5.30;98.50
60974;BME280;46846;51.528;5.076;2024-01-30T11:28:19;102118.44;;;5.31;97.99
60974;BME280;46846;51.528;5.076;2024-01-30T11:30:46;102123.72;;;5.38;98.23
60974;BME280;46846;51.528;5.076;2024-01-30T11:33:13;102125.47;;;5.36;98.26
60974;BME280;46846;51.528;5.076;2024-01-30T11:35:43;102119.28;;;5.30;97.91
60974;BME280;46846;51.528;5.076;2024-01-30T11:38:10;102118.44;;;5.34;98.14
60974;BME280;46846;51.528;5.076;2024-01-30T11:40:37;102118.50;;;5.41;98.15
60974;BME280;46846;51.528;5.076;2024-01-30T11:43:04;102135.28;;;5.52;97.96
60974;BME280;46846;51.528;5.076;2024-01-30T11:45:30;102130.94;;;5.59;97.86
60974;BME280;46846;51.528;5.076;2024-01-30T11:47:57;102135.38;;;5.68;97.32
60974;BME280;46846;51.528;5.076;2024-01-30T11:50:23;102133.53;;;5.56;97.35
60974;BME280;46846;51.528;5.076;2024-01-30T11:52:50;102146.88;;;5.70;97.38
60974;BME280;46846;51.528;5.076;2024-01-30T11:55:15;102137.16;;;5.66;97.08
60974;BME280;46846;51.528;5.076;2024-01-30T11:57:42;102134.50;;;5.63;97.45
60974;BME280;46846;51.528;5.076;2024-01-30T12:00:18;102135.31;;;5.55;97.50
60974;BME280;46846;51.528;5.076;2024-01-30T12:02:44;102145.09;;;5.67;97.55
60974;BME280;46846;51.528;5.076;2024-01-30T12:05:09;102145.97;;;5.72;96.61
60974;BME280;46846;51.528;5.076;2024-01-30T12:07:35;102154.75;;;5.65;97.03
60974;BME280;46846;51.528;5.076;2024-01-30T12:10:01;102142.47;;;5.70;97.19
60974;BME280;46846;51.528;5.076;2024-01-30T12:12:28;102149.47;;;5.64;96.86
60974;BME280;46846;51.528;5.076;2024-01-30T12:14:55;102149.38;;;5.56;97.51
60974;BME280;46846;51.528;5.076;2024-01-30T12:17:29;102159.13;;;5.61;97.68
60974;BME280;46846;51.528;5.076;2024-01-30T12:22:37;102168.81;;;5.61;97.22
60974;BME280;46846;51.528;5.076;2024-01-30T12:25:08;102161.78;;;5.63;96.96
60974;BME280;46846;51.528;5.076;2024-01-30T12:27:34;102171.41;;;5.59;96.80
60974;BME280;46846;51.528;5.076;2024-01-30T12:29:59;102174.09;;;5.64;96.97
60974;BME280;46846;51.528;5.076;2024-01-30T12:32:25;102167.09;;;5.69;96.79
60974;BME280;46846;51.528;5.076;2024-01-30T12:34:54;102170.69;;;5.78;95.38
60974;BME280;46846;51.528;5.076;2024-01-30T12:37:20;102175.13;;;5.83;95.87
60974;BME280;46846;51.528;5.076;2024-01-30T12:39:48;102177.78;;;5.85;95.94
60974;BME280;46846;51.528;5.076;2024-01-30T12:42:14;102182.19;;;5.87;96.39
60974;BME280;46846;51.528;5.076;2024-01-30T12:44:40;102189.28;;;5.95;95.11
60974;BME280;46846;51.528;5.076;2024-01-30T12:47:08;102187.50;;;5.92;95.97
60974;BME280;46846;51.528;5.076;2024-01-30T12:49:34;102190.13;;;5.87;96.41
60974;BME280;46846;51.528;5.076;2024-01-30T12:51:59;102193.69;;;5.94;95.69
60974;BME280;46846;51.528;5.076;2024-01-30T12:54:25;102194.59;;;5.95;94.86
60974;BME280;46846;51.528;5.076;2024-01-30T12:56:50;102187.56;;;6.01;94.64